sensor_id;sensor_type;location;lat;lon;timestamp;P1;durP1;ratioP1;P2;durP2;ratioP2
57842;SDS011;43673;51.058;3.734;2023-09-19T00:02:59;14.93;;;4.63;;
57842;SDS011;43673;51.058;3.734;2023-09-19T00:05:25;9.02;;;2.60;;
57842;SDS011;43673;51.058;3.734;2023-09-19T00:07:55;10.38;;;3.47;;
57842;SDS011;43673;51.058;3.734;2023-09-19T00:10:27;8.30;;;2.83;;
57842;SDS011;43673;51.058;3.734;2023-09-19T00:12:56;5.43;;;2.92;;
57842;SDS011;43673;51.058;3.734;2023-09-19T00:15:25;14.85;;;4.05;;
57842;SDS011;43673;51.058;3.734;2023-09-19T00:17:54;6.35;;;2.90;;
57842;SDS011;43673;51.058;3.734;2023-09-19T00:20:21;18.02;;;4.65;;
57842;SDS011;43673;51.058;3.734;2023-09-19T00:22:49;17.38;;;3.38;;
57842;SDS011;43673;51.058;3.734;2023-09-19T00:25:17;8.13;;;2.88;;
57842;SDS011;43673;51.058;3.734;2023-09-19T00:27:43;9.52;;;2.83;;
57842;SDS011;43673;51.058;3.734;2023-09-19T00:30:10;11.40;;;3.78;;
57842;SDS011;43673;51.058;3.734;2023-09-19T00:32:41;10.63;;;3.30;;
57842;SDS011;43673;51.058;3.734;2023-09-19T00:35:07;10.75;;;3.60;;
57842;SDS011;43673;51.058;3.734;2023-09-19T00:37:37;8.63;;;3.67;;
57842;SDS011;43673;51.058;3.734;2023-09-19T00:40:04;7.63;;;3.50;;
57842;SDS011;43673;51.058;3.734;2023-09-19T00:42:37;10.38;;;3.65;;
57842;SDS011;43673;51.058;3.734;2023-09-19T00:45:04;7.75;;;3.20;;
57842;SDS011;43673;51.058;3.734;2023-09-19T00:47:31;12.93;;;3.35;;
57842;SDS011;43673;51.058;3.734;2023-09-19T00:49:56;8.10;;;2.63;;
57842;SDS011;43673;51.058;3.734;2023-09-19T00:52:23;8.90;;;2.80;;
57842;SDS011;43673;51.058;3.734;2023-09-19T00:54:49;10.07;;;3.45;;
57842;SDS011;43673;51.058;3.734;2023-09-19T00:57:15;13.15;;;3.42;;
57842;SDS011;43673;51.058;3.734;2023-09-19T00:59:44;11.25;;;3.85;;
57842;SDS011;43673;51.058;3.734;2023-09-19T01:02:13;10.50;;;3.28;;
57842;SDS011;43673;51.058;3.734;2023-09-19T01:04:40;11.23;;;2.88;;
57842;SDS011;43673;51.058;3.734;2023-09-19T01:07:06;7.03;;;3.08;;
57842;SDS011;43673;51.058;3.734;2023-09-19T01:09:33;13.27;;;4.72;;
57842;SDS011;43673;51.058;3.734;2023-09-19T01:12:01;10.68;;;3.58;;
57842;SDS011;43673;51.058;3.734;2023-09-19T01:17:09;10.73;;;3.33;;
57842;SDS011;43673;51.058;3.734;2023-09-19T01:31:01;13.00;;;3.80;;
57842;SDS011;43673;51.058;3.734;2023-09-19T01:33:28;15.23;;;4.22;;
57842;SDS011;43673;51.058;3.734;2023-09-19T01:36:16;10.85;;;3.92;;
57842;SDS011;43673;51.058;3.734;2023-09-19T01:38:42;15.55;;;4.22;;
57842;SDS011;43673;51.058;3.734;2023-09-19T01:41:09;11.63;;;3.40;;
57842;SDS011;43673;51.058;3.734;2023-09-19T01:43:40;8.77;;;3.88;;
57842;SDS011;43673;51.058;3.734;2023-09-19T01:49:15;9.65;;;3.35;;
57842;SDS011;43673;51.058;3.734;2023-09-19T01:54:51;9.30;;;2.90;;
57842;SDS011;43673;51.058;3.734;2023-09-19T01:57:27;7.05;;;2.95;;
57842;SDS011;43673;51.058;3.734;2023-09-19T02:00:00;9.60;;;3.30;;
57842;SDS011;43673;51.058;3.734;2023-09-19T02:02:35;11.90;;;3.10;;
57842;SDS011;43673;51.058;3.734;2023-09-19T02:05:03;12.85;;;3.40;;
57842;SDS011;43673;51.058;3.734;2023-09-19T02:07:29;14.20;;;4.03;;
57842;SDS011;43673;51.058;3.734;2023-09-19T02:10:02;17.15;;;4.43;;
57842;SDS011;43673;51.058;3.734;2023-09-19T02:12:31;12.32;;;3.75;;
57842;SDS011;43673;51.058;3.734;2023-09-19T02:14:58;14.73;;;4.35;;
57842;SDS011;43673;51.058;3.734;2023-09-19T02:17:24;16.13;;;4.13;;
57842;SDS011;43673;51.058;3.734;2023-09-19T02:19:54;12.05;;;4.25;;
57842;SDS011;43673;51.058;3.734;2023-09-19T02:22:22;10.80;;;3.67;;
57842;SDS011;43673;51.058;3.734;2023-09-19T02:24:47;10.63;;;3.78;;
57842;SDS011;43673;51.058;3.734;2023-09-19T02:27:14;12.80;;;3.80;;
57842;SDS011;43673;51.058;3.734;2023-09-19T02:29:41;19.65;;;3.45;;
57842;SDS011;43673;51.058;3.734;2023-09-19T02:32:07;13.57;;;4.80;;
57842;SDS011;43673;51.058;3.734;2023-09-19T02:34:34;12.48;;;3.72;;
57842;SDS011;43673;51.058;3.734;2023-09-19T02:37:02;21.63;;;4.93;;
57842;SDS011;43673;51.058;3.734;2023-09-19T02:39:30;10.00;;;3.72;;
57842;SDS011;43673;51.058;3.734;2023-09-19T02:41:56;26.02;;;5.78;;
57842;SDS011;43673;51.058;3.734;2023-09-19T02:44:22;9.27;;;3.90;;
57842;SDS011;43673;51.058;3.734;2023-09-19T02:46:48;13.75;;;5.45;;
57842;SDS011;43673;51.058;3.734;2023-09-19T02:49:14;10.93;;;3.65;;
57842;SDS011;43673;51.058;3.734;2023-09-19T02:51:40;8.90;;;4.00;;
57842;SDS011;43673;51.058;3.734;2023-09-19T02:54:06;14.05;;;3.78;;
57842;SDS011;43673;51.058;3.734;2023-09-19T02:56:32;10.77;;;3.85;;
57842;SDS011;43673;51.058;3.734;2023-09-19T02:58:58;18.65;;;4.20;;
57842;SDS011;43673;51.058;3.734;2023-09-19T03:01:25;9.35;;;3.90;;
57842;SDS011;43673;51.058;3.734;2023-09-19T03:03:53;9.73;;;3.17;;
57842;SDS011;43673;51.058;3.734;2023-09-19T03:06:19;12.18;;;3.38;;
57842;SDS011;43673;51.058;3.734;2023-09-19T03:08:45;11.55;;;3.40;;
57842;SDS011;43673;51.058;3.734;2023-09-19T03:11:14;13.02;;;3.55;;
57842;SDS011;43673;51.058;3.734;2023-09-19T03:13:41;9.95;;;3.08;;
57842;SDS011;43673;51.058;3.734;2023-09-19T03:16:07;9.00;;;3.00;;
57842;SDS011;43673;51.058;3.734;2023-09-19T03:18:34;8.93;;;3.50;;
57842;SDS011;43673;51.058;3.734;2023-09-19T03:20:59;11.55;;;3.95;;
57842;SDS011;43673;51.058;3.734;2023-09-19T03:23:25;16.02;;;3.90;;
57842;SDS011;43673;51.058;3.734;2023-09-19T03:25:52;13.68;;;4.10;;
57842;SDS011;43673;51.058;3.734;2023-09-19T03:28:21;12.60;;;4.82;;
57842;SDS011;43673;51.058;3.734;2023-09-19T03:31:00;17.35;;;4.43;;
57842;SDS011;43673;51.058;3.734;2023-09-19T03:33:30;19.95;;;3.60;;
57842;SDS011;43673;51.058;3.734;2023-09-19T03:35:58;9.95;;;2.95;;
57842;SDS011;43673;51.058;3.734;2023-09-19T03:38:24;6.90;;;2.90;;
57842;SDS011;43673;51.058;3.734;2023-09-19T03:40:50;11.77;;;4.22;;
57842;SDS011;43673;51.058;3.734;2023-09-19T03:43:16;12.18;;;3.95;;
57842;SDS011;43673;51.058;3.734;2023-09-19T03:45:42;10.40;;;3.60;;
57842;SDS011;43673;51.058;3.734;2023-09-19T03:48:11;11.60;;;3.42;;
57842;SDS011;43673;51.058;3.734;2023-09-19T03:50:37;11.27;;;4.07;;
57842;SDS011;43673;51.058;3.734;2023-09-19T03:53:04;9.75;;;3.15;;
57842;SDS011;43673;51.058;3.734;2023-09-19T03:55:32;13.43;;;3.90;;
57842;SDS011;43673;51.058;3.734;2023-09-19T03:58:00;12.30;;;3.65;;
57842;SDS011;43673;51.058;3.734;2023-09-19T04:00:26;15.13;;;4.97;;
57842;SDS011;43673;51.058;3.734;2023-09-19T04:02:54;19.75;;;4.95;;
57842;SDS011;43673;51.058;3.734;2023-09-19T04:05:21;7.38;;;3.13;;
57842;SDS011;43673;51.058;3.734;2023-09-19T04:07:47;12.10;;;3.67;;
57842;SDS011;43673;51.058;3.734;2023-09-19T04:10:13;7.32;;;3.75;;
57842;SDS011;43673;51.058;3.734;2023-09-19T04:12:40;11.30;;;3.88;;
57842;SDS011;43673;51.058;3.734;2023-09-19T04:15:06;14.77;;;3.58;;
57842;SDS011;43673;51.058;3.734;2023-09-19T04:17:32;14.25;;;4.57;;
57842;SDS011;43673;51.058;3.734;2023-09-19T04:19:58;20.40;;;4.00;;
57842;SDS011;43673;51.058;3.734;2023-09-19T04:22:24;12.00;;;3.42;;
57842;SDS011;43673;51.058;3.734;2023-09-19T04:24:50;16.80;;;4.00;;
57842;SDS011;43673;51.058;3.734;2023-09-19T04:27:16;13.20;;;3.50;;
57842;SDS011;43673;51.058;3.734;2023-09-19T04:29:42;12.95;;;3.70;;
57842;SDS011;43673;51.058;3.734;2023-09-19T04:32:08;17.27;;;3.70;;
57842;SDS011;43673;51.058;3.734;2023-09-19T04:34:34;12.95;;;3.92;;
57842;SDS011;43673;51.058;3.734;2023-09-19T04:37:00;15.68;;;4.15;;
57842;SDS011;43673;51.058;3.734;2023-09-19T04:39:27;17.35;;;4.15;;
57842;SDS011;43673;51.058;3.734;2023-09-19T04:41:53;15.00;;;3.88;;
57842;SDS011;43673;51.058;3.734;2023-09-19T04:44:19;28.67;;;4.32;;
57842;SDS011;43673;51.058;3.734;2023-09-19T04:46:46;12.55;;;3.80;;
57842;SDS011;43673;51.058;3.734;2023-09-19T04:49:12;14.40;;;4.55;;
57842;SDS011;43673;51.058;3.734;2023-09-19T04:51:38;12.18;;;3.70;;
57842;SDS011;43673;51.058;3.734;2023-09-19T04:54:04;14.13;;;3.78;;
57842;SDS011;43673;51.058;3.734;2023-09-19T04:56:31;13.25;;;4.68;;
57842;SDS011;43673;51.058;3.734;2023-09-19T04:58:57;10.60;;;3.40;;
57842;SDS011;43673;51.058;3.734;2023-09-19T05:01:24;13.25;;;3.95;;
57842;SDS011;43673;51.058;3.734;2023-09-19T05:03:50;18.70;;;4.18;;
57842;SDS011;43673;51.058;3.734;2023-09-19T05:06:19;19.60;;;4.93;;
57842;SDS011;43673;51.058;3.734;2023-09-19T05:08:46;16.15;;;5.40;;
57842;SDS011;43673;51.058;3.734;2023-09-19T05:13:42;13.68;;;4.15;;
57842;SDS011;43673;51.058;3.734;2023-09-19T05:16:08;20.65;;;3.80;;
57842;SDS011;43673;51.058;3.734;2023-09-19T05:18:35;12.07;;;3.83;;
57842;SDS011;43673;51.058;3.734;2023-09-19T05:21:04;20.77;;;5.10;;
57842;SDS011;43673;51.058;3.734;2023-09-19T05:23:30;16.35;;;4.40;;
57842;SDS011;43673;51.058;3.734;2023-09-19T05:25:56;14.93;;;4.40;;
57842;SDS011;43673;51.058;3.734;2023-09-19T05:28:24;13.48;;;3.47;;
57842;SDS011;43673;51.058;3.734;2023-09-19T05:30:51;11.60;;;3.67;;
57842;SDS011;43673;51.058;3.734;2023-09-19T05:33:18;15.88;;;4.05;;
57842;SDS011;43673;51.058;3.734;2023-09-19T05:35:44;16.48;;;4.35;;
57842;SDS011;43673;51.058;3.734;2023-09-19T05:38:12;20.30;;;4.90;;
57842;SDS011;43673;51.058;3.734;2023-09-19T05:40:39;13.32;;;4.00;;
57842;SDS011;43673;51.058;3.734;2023-09-19T05:43:07;19.88;;;4.18;;
57842;SDS011;43673;51.058;3.734;2023-09-19T05:45:33;12.20;;;4.28;;
57842;SDS011;43673;51.058;3.734;2023-09-19T05:48:10;16.40;;;4.57;;
57842;SDS011;43673;51.058;3.734;2023-09-19T05:50:39;14.23;;;3.42;;
57842;SDS011;43673;51.058;3.734;2023-09-19T05:53:05;8.63;;;3.47;;
57842;SDS011;43673;51.058;3.734;2023-09-19T05:55:31;15.55;;;3.70;;
57842;SDS011;43673;51.058;3.734;2023-09-19T05:57:57;16.52;;;4.38;;
57842;SDS011;43673;51.058;3.734;2023-09-19T06:00:23;13.35;;;4.07;;
57842;SDS011;43673;51.058;3.734;2023-09-19T06:02:56;13.23;;;4.13;;
57842;SDS011;43673;51.058;3.734;2023-09-19T06:05:24;13.68;;;4.60;;
57842;SDS011;43673;51.058;3.734;2023-09-19T06:07:57;12.15;;;4.38;;
57842;SDS011;43673;51.058;3.734;2023-09-19T06:10:32;18.60;;;4.55;;
57842;SDS011;43673;51.058;3.734;2023-09-19T06:12:59;19.45;;;4.38;;
57842;SDS011;43673;51.058;3.734;2023-09-19T06:15:29;19.20;;;5.10;;
57842;SDS011;43673;51.058;3.734;2023-09-19T06:17:57;12.20;;;3.38;;
57842;SDS011;43673;51.058;3.734;2023-09-19T06:20:30;13.05;;;4.05;;
57842;SDS011;43673;51.058;3.734;2023-09-19T06:22:56;15.25;;;4.55;;
57842;SDS011;43673;51.058;3.734;2023-09-19T06:25:22;12.05;;;4.10;;
57842;SDS011;43673;51.058;3.734;2023-09-19T06:27:48;15.88;;;4.28;;
57842;SDS011;43673;51.058;3.734;2023-09-19T06:30:17;16.48;;;3.97;;
57842;SDS011;43673;51.058;3.734;2023-09-19T06:32:43;15.80;;;3.92;;
57842;SDS011;43673;51.058;3.734;2023-09-19T06:35:09;17.30;;;3.78;;
57842;SDS011;43673;51.058;3.734;2023-09-19T06:37:36;15.18;;;6.50;;
57842;SDS011;43673;51.058;3.734;2023-09-19T06:40:06;14.43;;;3.72;;
57842;SDS011;43673;51.058;3.734;2023-09-19T06:43:12;9.90;;;3.78;;
57842;SDS011;43673;51.058;3.734;2023-09-19T06:45:31;12.57;;;3.30;;
57842;SDS011;43673;51.058;3.734;2023-09-19T06:47:57;13.15;;;3.40;;
57842;SDS011;43673;51.058;3.734;2023-09-19T06:50:25;11.73;;;3.75;;
57842;SDS011;43673;51.058;3.734;2023-09-19T06:52:55;9.77;;;3.90;;
57842;SDS011;43673;51.058;3.734;2023-09-19T06:55:22;11.20;;;4.20;;
57842;SDS011;43673;51.058;3.734;2023-09-19T06:57:56;19.45;;;4.97;;
57842;SDS011;43673;51.058;3.734;2023-09-19T07:00:23;11.70;;;4.15;;
57842;SDS011;43673;51.058;3.734;2023-09-19T07:02:58;12.93;;;3.50;;
57842;SDS011;43673;51.058;3.734;2023-09-19T07:05:26;12.38;;;3.20;;
57842;SDS011;43673;51.058;3.734;2023-09-19T07:07:52;10.98;;;4.35;;
57842;SDS011;43673;51.058;3.734;2023-09-19T07:10:21;11.05;;;3.50;;
57842;SDS011;43673;51.058;3.734;2023-09-19T07:12:54;12.43;;;3.35;;
57842;SDS011;43673;51.058;3.734;2023-09-19T07:15:23;10.88;;;3.92;;
57842;SDS011;43673;51.058;3.734;2023-09-19T07:17:50;9.90;;;3.60;;
57842;SDS011;43673;51.058;3.734;2023-09-19T07:20:17;10.57;;;3.70;;
57842;SDS011;43673;51.058;3.734;2023-09-19T07:22:43;10.52;;;3.50;;
57842;SDS011;43673;51.058;3.734;2023-09-19T07:25:09;13.13;;;3.63;;
57842;SDS011;43673;51.058;3.734;2023-09-19T07:27:35;9.73;;;3.58;;
57842;SDS011;43673;51.058;3.734;2023-09-19T07:30:01;11.77;;;3.45;;
57842;SDS011;43673;51.058;3.734;2023-09-19T07:32:26;12.35;;;3.70;;
57842;SDS011;43673;51.058;3.734;2023-09-19T07:34:52;10.13;;;3.00;;
57842;SDS011;43673;51.058;3.734;2023-09-19T07:37:20;10.40;;;3.78;;
57842;SDS011;43673;51.058;3.734;2023-09-19T07:39:46;14.57;;;3.88;;
57842;SDS011;43673;51.058;3.734;2023-09-19T07:42:12;11.05;;;3.05;;
57842;SDS011;43673;51.058;3.734;2023-09-19T07:44:43;11.43;;;3.13;;
57842;SDS011;43673;51.058;3.734;2023-09-19T07:47:11;9.13;;;3.60;;
57842;SDS011;43673;51.058;3.734;2023-09-19T07:49:38;8.63;;;3.10;;
57842;SDS011;43673;51.058;3.734;2023-09-19T07:52:04;14.32;;;3.60;;
57842;SDS011;43673;51.058;3.734;2023-09-19T07:54:30;8.52;;;3.83;;
57842;SDS011;43673;51.058;3.734;2023-09-19T07:57:00;12.95;;;3.28;;
57842;SDS011;43673;51.058;3.734;2023-09-19T07:59:27;10.77;;;3.55;;
57842;SDS011;43673;51.058;3.734;2023-09-19T08:01:53;9.35;;;2.92;;
57842;SDS011;43673;51.058;3.734;2023-09-19T08:04:19;13.75;;;4.32;;
57842;SDS011;43673;51.058;3.734;2023-09-19T08:06:44;10.50;;;3.17;;
57842;SDS011;43673;51.058;3.734;2023-09-19T08:09:10;9.52;;;3.15;;
57842;SDS011;43673;51.058;3.734;2023-09-19T08:11:39;6.78;;;2.72;;
57842;SDS011;43673;51.058;3.734;2023-09-19T08:14:04;11.13;;;3.35;;
57842;SDS011;43673;51.058;3.734;2023-09-19T08:16:32;10.05;;;3.85;;
57842;SDS011;43673;51.058;3.734;2023-09-19T08:18:58;10.82;;;2.97;;
57842;SDS011;43673;51.058;3.734;2023-09-19T08:21:24;13.85;;;4.45;;
57842;SDS011;43673;51.058;3.734;2023-09-19T08:23:51;11.45;;;3.15;;
57842;SDS011;43673;51.058;3.734;2023-09-19T08:26:17;5.75;;;3.20;;
57842;SDS011;43673;51.058;3.734;2023-09-19T08:28:44;11.20;;;3.40;;
57842;SDS011;43673;51.058;3.734;2023-09-19T08:31:10;10.38;;;2.97;;
57842;SDS011;43673;51.058;3.734;2023-09-19T08:33:36;12.85;;;3.50;;
57842;SDS011;43673;51.058;3.734;2023-09-19T08:36:02;11.23;;;3.25;;
57842;SDS011;43673;51.058;3.734;2023-09-19T08:38:30;12.90;;;3.40;;
57842;SDS011;43673;51.058;3.734;2023-09-19T08:40:58;8.35;;;2.67;;
57842;SDS011;43673;51.058;3.734;2023-09-19T08:43:27;10.35;;;3.35;;
57842;SDS011;43673;51.058;3.734;2023-09-19T08:45:56;7.72;;;3.88;;
57842;SDS011;43673;51.058;3.734;2023-09-19T08:48:32;14.20;;;3.95;;
57842;SDS011;43673;51.058;3.734;2023-09-19T08:51:03;9.02;;;2.65;;
57842;SDS011;43673;51.058;3.734;2023-09-19T08:56:03;9.02;;;3.80;;
57842;SDS011;43673;51.058;3.734;2023-09-19T08:58:44;7.00;;;2.92;;
57842;SDS011;43673;51.058;3.734;2023-09-19T09:01:18;5.35;;;2.88;;
57842;SDS011;43673;51.058;3.734;2023-09-19T09:03:51;11.82;;;3.78;;
57842;SDS011;43673;51.058;3.734;2023-09-19T09:06:18;13.05;;;3.10;;
57842;SDS011;43673;51.058;3.734;2023-09-19T09:11:19;10.48;;;3.33;;
57842;SDS011;43673;51.058;3.734;2023-09-19T09:13:50;12.48;;;2.83;;
57842;SDS011;43673;51.058;3.734;2023-09-19T09:16:16;11.68;;;2.83;;
57842;SDS011;43673;51.058;3.734;2023-09-19T09:18:45;8.55;;;2.58;;
57842;SDS011;43673;51.058;3.734;2023-09-19T09:21:12;7.32;;;2.60;;
57842;SDS011;43673;51.058;3.734;2023-09-19T09:23:39;7.10;;;2.10;;
57842;SDS011;43673;51.058;3.734;2023-09-19T09:26:05;12.60;;;3.97;;
57842;SDS011;43673;51.058;3.734;2023-09-19T09:28:32;13.52;;;3.63;;
57842;SDS011;43673;51.058;3.734;2023-09-19T09:31:00;5.97;;;2.40;;
57842;SDS011;43673;51.058;3.734;2023-09-19T09:33:37;9.52;;;2.80;;
57842;SDS011;43673;51.058;3.734;2023-09-19T09:36:04;6.25;;;2.17;;
57842;SDS011;43673;51.058;3.734;2023-09-19T09:38:44;7.40;;;2.42;;
57842;SDS011;43673;51.058;3.734;2023-09-19T09:41:13;7.82;;;2.83;;
57842;SDS011;43673;51.058;3.734;2023-09-19T09:43:52;7.75;;;2.90;;
57842;SDS011;43673;51.058;3.734;2023-09-19T09:46:18;13.85;;;3.15;;
57842;SDS011;43673;51.058;3.734;2023-09-19T09:51:38;13.20;;;2.65;;
57842;SDS011;43673;51.058;3.734;2023-09-19T10:00:09;7.10;;;2.35;;
57842;SDS011;43673;51.058;3.734;2023-09-19T10:02:19;6.72;;;2.20;;
57842;SDS011;43673;51.058;3.734;2023-09-19T10:04:58;6.55;;;2.05;;
57842;SDS011;43673;51.058;3.734;2023-09-19T10:07:34;8.15;;;2.20;;
57842;SDS011;43673;51.058;3.734;2023-09-19T10:10:05;7.20;;;2.40;;
57842;SDS011;43673;51.058;3.734;2023-09-19T10:12:44;7.15;;;2.80;;
57842;SDS011;43673;51.058;3.734;2023-09-19T10:15:11;5.75;;;2.50;;
57842;SDS011;43673;51.058;3.734;2023-09-19T10:17:40;7.47;;;2.83;;
57842;SDS011;43673;51.058;3.734;2023-09-19T10:20:12;5.80;;;2.08;;
57842;SDS011;43673;51.058;3.734;2023-09-19T10:22:59;8.35;;;2.45;;
57842;SDS011;43673;51.058;3.734;2023-09-19T10:25:27;4.68;;;2.22;;
57842;SDS011;43673;51.058;3.734;2023-09-19T10:30:24;7.30;;;2.22;;
57842;SDS011;43673;51.058;3.734;2023-09-19T10:33:00;4.55;;;1.60;;
57842;SDS011;43673;51.058;3.734;2023-09-19T10:35:27;6.90;;;2.20;;
57842;SDS011;43673;51.058;3.734;2023-09-19T10:37:57;3.60;;;1.85;;
57842;SDS011;43673;51.058;3.734;2023-09-19T10:40:29;6.00;;;1.60;;
57842;SDS011;43673;51.058;3.734;2023-09-19T10:43:02;3.63;;;1.67;;
57842;SDS011;43673;51.058;3.734;2023-09-19T10:45:31;2.25;;;1.50;;
57842;SDS011;43673;51.058;3.734;2023-09-19T10:47:58;5.65;;;1.70;;
57842;SDS011;43673;51.058;3.734;2023-09-19T10:50:25;4.63;;;1.92;;
57842;SDS011;43673;51.058;3.734;2023-09-19T10:52:56;4.60;;;1.73;;
57842;SDS011;43673;51.058;3.734;2023-09-19T10:55:29;2.85;;;1.90;;
57842;SDS011;43673;51.058;3.734;2023-09-19T10:57:58;5.95;;;2.15;;
57842;SDS011;43673;51.058;3.734;2023-09-19T11:00:25;3.35;;;1.67;;
57842;SDS011;43673;51.058;3.734;2023-09-19T11:05:43;5.50;;;1.67;;
57842;SDS011;43673;51.058;3.734;2023-09-19T11:11:47;4.13;;;1.30;;
57842;SDS011;43673;51.058;3.734;2023-09-19T11:17:29;3.90;;;2.10;;
57842;SDS011;43673;51.058;3.734;2023-09-19T11:30:41;4.18;;;1.80;;
57842;SDS011;43673;51.058;3.734;2023-09-19T11:46:51;5.47;;;1.67;;
57842;SDS011;43673;51.058;3.734;2023-09-19T11:49:17;5.40;;;1.95;;
57842;SDS011;43673;51.058;3.734;2023-09-19T11:51:48;6.63;;;1.80;;
57842;SDS011;43673;51.058;3.734;2023-09-19T11:54:19;4.80;;;1.83;;
57842;SDS011;43673;51.058;3.734;2023-09-19T11:56:48;8.45;;;2.15;;
57842;SDS011;43673;51.058;3.734;2023-09-19T11:59:28;6.70;;;2.30;;
57842;SDS011;43673;51.058;3.734;2023-09-19T12:07:07;7.22;;;2.28;;
57842;SDS011;43673;51.058;3.734;2023-09-19T12:09:40;3.47;;;2.05;;
57842;SDS011;43673;51.058;3.734;2023-09-19T12:12:09;6.95;;;1.98;;
57842;SDS011;43673;51.058;3.734;2023-09-19T12:14:55;3.40;;;1.60;;
57842;SDS011;43673;51.058;3.734;2023-09-19T12:17:37;6.53;;;2.00;;
57842;SDS011;43673;51.058;3.734;2023-09-19T12:20:06;7.47;;;2.40;;
57842;SDS011;43673;51.058;3.734;2023-09-19T12:22:39;5.47;;;1.98;;
57842;SDS011;43673;51.058;3.734;2023-09-19T12:25:08;5.13;;;1.88;;
57842;SDS011;43673;51.058;3.734;2023-09-19T12:27:42;6.15;;;2.60;;
57842;SDS011;43673;51.058;3.734;2023-09-19T12:30:12;7.63;;;2.30;;
57842;SDS011;43673;51.058;3.734;2023-09-19T12:32:46;4.53;;;1.95;;
57842;SDS011;43673;51.058;3.734;2023-09-19T12:35:31;9.48;;;2.55;;
57842;SDS011;43673;51.058;3.734;2023-09-19T12:38:00;5.00;;;2.35;;
57842;SDS011;43673;51.058;3.734;2023-09-19T12:40:26;6.18;;;2.40;;
57842;SDS011;43673;51.058;3.734;2023-09-19T12:42:58;6.65;;;2.15;;
57842;SDS011;43673;51.058;3.734;2023-09-19T12:45:25;5.95;;;2.67;;
57842;SDS011;43673;51.058;3.734;2023-09-19T12:53:38;5.03;;;2.22;;
57842;SDS011;43673;51.058;3.734;2023-09-19T12:56:09;6.32;;;2.65;;
57842;SDS011;43673;51.058;3.734;2023-09-19T13:01:26;6.80;;;2.33;;
57842;SDS011;43673;51.058;3.734;2023-09-19T13:04:11;7.60;;;2.08;;
57842;SDS011;43673;51.058;3.734;2023-09-19T13:06:45;6.57;;;2.10;;
57842;SDS011;43673;51.058;3.734;2023-09-19T13:09:15;6.40;;;3.33;;
57842;SDS011;43673;51.058;3.734;2023-09-19T13:11:42;5.93;;;2.28;;
57842;SDS011;43673;51.058;3.734;2023-09-19T13:14:20;9.70;;;2.70;;
57842;SDS011;43673;51.058;3.734;2023-09-19T13:17:08;7.78;;;2.60;;
57842;SDS011;43673;51.058;3.734;2023-09-19T13:19:51;6.57;;;2.50;;
57842;SDS011;43673;51.058;3.734;2023-09-19T13:25:12;3.50;;;2.35;;
57842;SDS011;43673;51.058;3.734;2023-09-19T13:30:16;6.95;;;2.45;;
57842;SDS011;43673;51.058;3.734;2023-09-19T13:32:42;5.53;;;2.53;;
57842;SDS011;43673;51.058;3.734;2023-09-19T13:35:08;7.10;;;2.58;;
57842;SDS011;43673;51.058;3.734;2023-09-19T13:37:35;6.80;;;2.30;;
57842;SDS011;43673;51.058;3.734;2023-09-19T13:40:06;6.90;;;2.95;;
57842;SDS011;43673;51.058;3.734;2023-09-19T13:42:36;9.10;;;3.00;;
57842;SDS011;43673;51.058;3.734;2023-09-19T13:45:02;7.10;;;2.88;;
57842;SDS011;43673;51.058;3.734;2023-09-19T13:47:32;5.63;;;2.10;;
57842;SDS011;43673;51.058;3.734;2023-09-19T13:49:58;3.08;;;2.13;;
57842;SDS011;43673;51.058;3.734;2023-09-19T13:52:25;5.00;;;1.80;;
57842;SDS011;43673;51.058;3.734;2023-09-19T13:54:56;4.45;;;2.45;;
57842;SDS011;43673;51.058;3.734;2023-09-19T13:57:23;6.72;;;2.47;;
57842;SDS011;43673;51.058;3.734;2023-09-19T13:59:49;6.13;;;2.50;;
57842;SDS011;43673;51.058;3.734;2023-09-19T14:02:16;8.95;;;2.78;;
57842;SDS011;43673;51.058;3.734;2023-09-19T14:04:43;7.68;;;2.80;;
57842;SDS011;43673;51.058;3.734;2023-09-19T14:07:10;6.47;;;2.40;;
57842;SDS011;43673;51.058;3.734;2023-09-19T14:09:40;5.90;;;2.20;;
57842;SDS011;43673;51.058;3.734;2023-09-19T14:12:06;6.20;;;2.45;;
57842;SDS011;43673;51.058;3.734;2023-09-19T14:14:32;6.97;;;2.40;;
57842;SDS011;43673;51.058;3.734;2023-09-19T14:16:58;7.93;;;2.22;;
57842;SDS011;43673;51.058;3.734;2023-09-19T14:19:26;6.68;;;2.17;;
57842;SDS011;43673;51.058;3.734;2023-09-19T14:21:52;4.70;;;2.92;;
57842;SDS011;43673;51.058;3.734;2023-09-19T14:24:20;6.28;;;2.60;;
57842;SDS011;43673;51.058;3.734;2023-09-19T14:26:47;8.77;;;2.50;;
57842;SDS011;43673;51.058;3.734;2023-09-19T14:29:14;9.57;;;3.08;;
57842;SDS011;43673;51.058;3.734;2023-09-19T14:31:40;7.75;;;2.53;;
57842;SDS011;43673;51.058;3.734;2023-09-19T14:34:07;9.07;;;2.60;;
57842;SDS011;43673;51.058;3.734;2023-09-19T14:36:35;4.15;;;2.40;;
57842;SDS011;43673;51.058;3.734;2023-09-19T14:39:01;6.00;;;2.50;;
57842;SDS011;43673;51.058;3.734;2023-09-19T14:41:30;9.65;;;2.60;;
57842;SDS011;43673;51.058;3.734;2023-09-19T14:43:56;5.50;;;2.20;;
57842;SDS011;43673;51.058;3.734;2023-09-19T14:46:22;8.15;;;2.33;;
57842;SDS011;43673;51.058;3.734;2023-09-19T14:48:52;9.43;;;3.38;;
57842;SDS011;43673;51.058;3.734;2023-09-19T14:51:18;11.68;;;2.83;;
57842;SDS011;43673;51.058;3.734;2023-09-19T14:53:44;7.60;;;2.40;;
57842;SDS011;43673;51.058;3.734;2023-09-19T14:56:11;7.72;;;2.60;;
57842;SDS011;43673;51.058;3.734;2023-09-19T14:58:41;6.20;;;2.40;;
57842;SDS011;43673;51.058;3.734;2023-09-19T15:01:10;6.88;;;2.85;;
57842;SDS011;43673;51.058;3.734;2023-09-19T15:03:38;8.13;;;3.10;;
57842;SDS011;43673;51.058;3.734;2023-09-19T15:06:09;8.82;;;3.25;;
57842;SDS011;43673;51.058;3.734;2023-09-19T15:08:39;7.13;;;2.72;;
57842;SDS011;43673;51.058;3.734;2023-09-19T15:11:11;4.88;;;3.63;;
57842;SDS011;43673;51.058;3.734;2023-09-19T15:13:38;7.35;;;2.78;;
57842;SDS011;43673;51.058;3.734;2023-09-19T15:16:06;7.78;;;3.08;;
57842;SDS011;43673;51.058;3.734;2023-09-19T15:18:37;10.07;;;2.88;;
57842;SDS011;43673;51.058;3.734;2023-09-19T15:21:05;6.72;;;2.65;;
57842;SDS011;43673;51.058;3.734;2023-09-19T15:23:33;6.63;;;3.17;;
57842;SDS011;43673;51.058;3.734;2023-09-19T15:26:06;11.30;;;3.78;;
57842;SDS011;43673;51.058;3.734;2023-09-19T15:28:33;6.47;;;3.00;;
57842;SDS011;43673;51.058;3.734;2023-09-19T15:31:14;10.18;;;2.67;;
57842;SDS011;43673;51.058;3.734;2023-09-19T15:33:40;5.47;;;2.47;;
57842;SDS011;43673;51.058;3.734;2023-09-19T15:36:07;9.18;;;2.63;;
57842;SDS011;43673;51.058;3.734;2023-09-19T15:41:27;6.93;;;3.33;;
57842;SDS011;43673;51.058;3.734;2023-09-19T15:43:58;6.15;;;2.83;;
57842;SDS011;43673;51.058;3.734;2023-09-19T15:46:30;7.18;;;2.67;;
57842;SDS011;43673;51.058;3.734;2023-09-19T15:48:58;11.02;;;3.75;;
57842;SDS011;43673;51.058;3.734;2023-09-19T15:51:25;8.10;;;3.15;;
57842;SDS011;43673;51.058;3.734;2023-09-19T15:53:52;6.93;;;3.03;;
57842;SDS011;43673;51.058;3.734;2023-09-19T15:56:21;11.85;;;3.50;;
57842;SDS011;43673;51.058;3.734;2023-09-19T15:58:50;13.30;;;3.05;;
57842;SDS011;43673;51.058;3.734;2023-09-19T16:01:19;9.63;;;3.45;;
57842;SDS011;43673;51.058;3.734;2023-09-19T16:03:49;7.32;;;3.30;;
57842;SDS011;43673;51.058;3.734;2023-09-19T16:06:21;8.55;;;3.33;;
57842;SDS011;43673;51.058;3.734;2023-09-19T16:08:49;8.55;;;3.20;;
57842;SDS011;43673;51.058;3.734;2023-09-19T16:11:17;8.85;;;3.33;;
57842;SDS011;43673;51.058;3.734;2023-09-19T16:13:46;9.05;;;2.80;;
57842;SDS011;43673;51.058;3.734;2023-09-19T16:16:13;8.15;;;3.10;;
57842;SDS011;43673;51.058;3.734;2023-09-19T16:18:53;14.98;;;4.38;;
57842;SDS011;43673;51.058;3.734;2023-09-19T16:21:22;7.35;;;3.03;;
57842;SDS011;43673;51.058;3.734;2023-09-19T16:23:50;9.38;;;3.53;;
57842;SDS011;43673;51.058;3.734;2023-09-19T16:26:18;9.63;;;3.17;;